sensor_id;sensor_type;location;lat;lon;timestamp;temperature;humidity
17762;DHT22;9005;48.838;10.112;2023-01-26T00:01:48;-0.10;99.90
17762;DHT22;9005;48.838;10.112;2023-01-26T00:04:15;-0.20;99.90
17762;DHT22;9005;48.838;10.112;2023-01-26T00:06:42;-0.20;99.90
17762;DHT22;9005;48.838;10.112;2023-01-26T00:09:11;-0.30;99.90
17762;DHT22;9005;48.838;10.112;2023-01-26T00:11:38;-0.30;99.90
17762;DHT22;9005;48.838;10.112;2023-01-26T00:14:05;-0.30;99.90
17762;DHT22;9005;48.838;10.112;2023-01-26T00:16:32;-0.40;99.90
17762;DHT22;9005;48.838;10.112;2023-01-26T00:19:00;-0.40;99.90
17762;DHT22;9005;48.838;10.112;2023-01-26T00:21:27;-0.30;99.90
17762;DHT22;9005;48.838;10.112;2023-01-26T00:23:54;-0.30;99.90
17762;DHT22;9005;48.838;10.112;2023-01-26T00:26:23;-0.30;99.90
17762;DHT22;9005;48.838;10.112;2023-01-26T00:28:51;-0.30;99.90
17762;DHT22;9005;48.838;10.112;2023-01-26T00:31:19;-0.40;99.90
17762;DHT22;9005;48.838;10.112;2023-01-26T00:33:46;-0.40;99.90
17762;DHT22;9005;48.838;10.112;2023-01-26T00:36:14;-0.40;99.90
17762;DHT22;9005;48.838;10.112;2023-01-26T00:38:41;-0.40;99.90
17762;DHT22;9005;48.838;10.112;2023-01-26T00:41:09;-0.30;99.90
17762;DHT22;9005;48.838;10.112;2023-01-26T00:43:56;-0.30;99.90
17762;DHT22;9005;48.838;10.112;2023-01-26T00:46:23;-0.30;99.90
17762;DHT22;9005;48.838;10.112;2023-01-26T00:48:50;-0.30;99.90
17762;DHT22;9005;48.838;10.112;2023-01-26T00:51:18;-0.30;99.90
17762;DHT22;9005;48.838;10.112;2023-01-26T00:53:44;-0.30;99.90
17762;DHT22;9005;48.838;10.112;2023-01-26T00:56:11;-0.30;99.90
17762;DHT22;9005;48.838;10.112;2023-01-26T00:58:39;-0.30;99.90
17762;DHT22;9005;48.838;10.112;2023-01-26T01:01:06;-0.30;99.90
17762;DHT22;9005;48.838;10.112;2023-01-26T01:03:33;-0.30;99.90
17762;DHT22;9005;48.838;10.112;2023-01-26T01:06:00;-0.30;99.90
17762;DHT22;9005;48.838;10.112;2023-01-26T01:08:28;-0.30;99.90
17762;DHT22;9005;48.838;10.112;2023-01-26T01:11:02;-0.30;99.90
17762;DHT22;9005;48.838;10.112;2023-01-26T01:13:29;-0.30;99.90
17762;DHT22;9005;48.838;10.112;2023-01-26T01:15:56;-0.30;99.90
17762;DHT22;9005;48.838;10.112;2023-01-26T01:18:23;-0.30;99.90
17762;DHT22;9005;48.838;10.112;2023-01-26T01:20:49;-0.20;99.90
17762;DHT22;9005;48.838;10.112;2023-01-26T01:23:16;-0.20;99.90
17762;DHT22;9005;48.838;10.112;2023-01-26T01:25:45;-0.20;99.90
17762;DHT22;9005;48.838;10.112;2023-01-26T01:28:11;-0.20;99.90
17762;DHT22;9005;48.838;10.112;2023-01-26T01:30:38;-0.10;99.90
17762;DHT22;9005;48.838;10.112;2023-01-26T01:33:05;-0.10;99.90
17762;DHT22;9005;48.838;10.112;2023-01-26T01:35:32;-0.10;99.90
17762;DHT22;9005;48.838;10.112;2023-01-26T01:38:00;0.00;99.90
17762;DHT22;9005;48.838;10.112;2023-01-26T01:40:27;0.00;99.90
17762;DHT22;9005;48.838;10.112;2023-01-26T01:42:55;0.00;99.90
17762;DHT22;9005;48.838;10.112;2023-01-26T01:45:46;0.00;99.90
17762;DHT22;9005;48.838;10.112;2023-01-26T01:48:21;0.00;99.90
17762;DHT22;9005;48.838;10.112;2023-01-26T01:50:51;0.00;99.90
17762;DHT22;9005;48.838;10.112;2023-01-26T01:53:23;0.00;99.90
17762;DHT22;9005;48.838;10.112;2023-01-26T01:55:54;0.00;99.90
17762;DHT22;9005;48.838;10.112;2023-01-26T01:58:24;0.00;99.90
17762;DHT22;9005;48.838;10.112;2023-01-26T02:00:52;0.00;99.90
17762;DHT22;9005;48.838;10.112;2023-01-26T02:03:19;0.10;99.90
17762;DHT22;9005;48.838;10.112;2023-01-26T02:05:52;0.10;99.90
17762;DHT22;9005;48.838;10.112;2023-01-26T02:08:23;0.00;99.90
17762;DHT22;9005;48.838;10.112;2023-01-26T02:10:53;0.00;99.90
17762;DHT22;9005;48.838;10.112;2023-01-26T02:13:23;0.00;99.90
17762;DHT22;9005;48.838;10.112;2023-01-26T02:15:50;-0.10;99.90
17762;DHT22;9005;48.838;10.112;2023-01-26T02:18:17;-0.20;99.90
17762;DHT22;9005;48.838;10.112;2023-01-26T02:20:45;-0.20;99.90
17762;DHT22;9005;48.838;10.112;2023-01-26T02:23:22;-0.30;99.90
17762;DHT22;9005;48.838;10.112;2023-01-26T02:26:04;-0.40;99.90
17762;DHT22;9005;48.838;10.112;2023-01-26T02:28:31;-0.50;99.90
17762;DHT22;9005;48.838;10.112;2023-01-26T02:30:58;-0.50;99.90
17762;DHT22;9005;48.838;10.112;2023-01-26T02:33:28;-0.60;99.90
17762;DHT22;9005;48.838;10.112;2023-01-26T02:35:56;-0.60;99.90
17762;DHT22;9005;48.838;10.112;2023-01-26T02:38:26;-0.70;99.90
17762;DHT22;9005;48.838;10.112;2023-01-26T02:40:57;-0.70;99.90
17762;DHT22;9005;48.838;10.112;2023-01-26T02:43:27;-0.70;99.90
17762;DHT22;9005;48.838;10.112;2023-01-26T02:45:53;-0.70;99.90
17762;DHT22;9005;48.838;10.112;2023-01-26T02:48:20;-0.70;99.90
17762;DHT22;9005;48.838;10.112;2023-01-26T02:51:01;-0.70;99.90
17762;DHT22;9005;48.838;10.112;2023-01-26T02:53:28;-0.70;99.90
17762;DHT22;9005;48.838;10.112;2023-01-26T02:55:54;-0.70;99.90
17762;DHT22;9005;48.838;10.112;2023-01-26T02:58:20;-0.70;99.90
17762;DHT22;9005;48.838;10.112;2023-01-26T03:00:48;-0.70;99.90
17762;DHT22;9005;48.838;10.112;2023-01-26T03:03:17;-0.70;99.90
17762;DHT22;9005;48.838;10.112;2023-01-26T03:05:45;-0.80;99.90
17762;DHT22;9005;48.838;10.112;2023-01-26T03:08:12;-0.80;99.90
17762;DHT22;9005;48.838;10.112;2023-01-26T03:10:38;-0.80;99.90
17762;DHT22;9005;48.838;10.112;2023-01-26T03:13:06;-0.80;99.90
17762;DHT22;9005;48.838;10.112;2023-01-26T03:15:32;-0.80;99.90
17762;DHT22;9005;48.838;10.112;2023-01-26T03:18:10;-0.70;99.90
17762;DHT22;9005;48.838;10.112;2023-01-26T03:21:11;-0.70;99.90
17762;DHT22;9005;48.838;10.112;2023-01-26T03:23:56;-0.60;99.90
17762;DHT22;9005;48.838;10.112;2023-01-26T03:26:41;-0.60;99.90
17762;DHT22;9005;48.838;10.112;2023-01-26T03:29:25;-0.50;99.90
17762;DHT22;9005;48.838;10.112;2023-01-26T03:31:52;-0.50;99.90
17762;DHT22;9005;48.838;10.112;2023-01-26T03:34:20;-0.50;99.90
17762;DHT22;9005;48.838;10.112;2023-01-26T03:36:48;-0.50;99.90
17762;DHT22;9005;48.838;10.112;2023-01-26T03:39:14;-0.50;99.90
17762;DHT22;9005;48.838;10.112;2023-01-26T03:41:55;-0.50;99.90
17762;DHT22;9005;48.838;10.112;2023-01-26T03:44:39;-0.50;99.90
17762;DHT22;9005;48.838;10.112;2023-01-26T03:47:23;-0.50;99.90
17762;DHT22;9005;48.838;10.112;2023-01-26T03:50:10;-0.50;99.90
17762;DHT22;9005;48.838;10.112;2023-01-26T03:52:55;-0.50;99.90
17762;DHT22;9005;48.838;10.112;2023-01-26T03:55:39;-0.60;99.90
17762;DHT22;9005;48.838;10.112;2023-01-26T03:58:23;-0.70;99.90
17762;DHT22;9005;48.838;10.112;2023-01-26T04:00:54;-0.70;99.90
17762;DHT22;9005;48.838;10.112;2023-01-26T04:03:21;-0.70;99.90
17762;DHT22;9005;48.838;10.112;2023-01-26T04:06:07;-0.70;99.90
17762;DHT22;9005;48.838;10.112;2023-01-26T04:08:51;-0.80;99.90
17762;DHT22;9005;48.838;10.112;2023-01-26T04:11:18;-0.80;99.90
17762;DHT22;9005;48.838;10.112;2023-01-26T04:13:44;-0.80;99.90
17762;DHT22;9005;48.838;10.112;2023-01-26T04:16:29;-0.80;99.90
17762;DHT22;9005;48.838;10.112;2023-01-26T04:19:13;-0.80;99.90
17762;DHT22;9005;48.838;10.112;2023-01-26T04:21:59;-0.80;99.90
17762;DHT22;9005;48.838;10.112;2023-01-26T04:24:26;-0.80;99.90
17762;DHT22;9005;48.838;10.112;2023-01-26T04:26:53;-0.90;99.90
17762;DHT22;9005;48.838;10.112;2023-01-26T04:29:19;-0.90;99.90
17762;DHT22;9005;48.838;10.112;2023-01-26T04:31:46;-0.90;99.90
17762;DHT22;9005;48.838;10.112;2023-01-26T04:34:14;-0.90;99.90
17762;DHT22;9005;48.838;10.112;2023-01-26T04:36:41;-0.90;99.90
17762;DHT22;9005;48.838;10.112;2023-01-26T04:39:10;-0.80;99.90
17762;DHT22;9005;48.838;10.112;2023-01-26T04:41:36;-0.80;99.90
17762;DHT22;9005;48.838;10.112;2023-01-26T04:44:03;-0.80;99.90
17762;DHT22;9005;48.838;10.112;2023-01-26T04:46:30;-0.80;99.90
17762;DHT22;9005;48.838;10.112;2023-01-26T04:48:57;-0.90;99.90
17762;DHT22;9005;48.838;10.112;2023-01-26T04:51:24;-0.90;99.90
17762;DHT22;9005;48.838;10.112;2023-01-26T04:53:52;-0.90;99.90
17762;DHT22;9005;48.838;10.112;2023-01-26T04:56:22;-0.90;99.90
17762;DHT22;9005;48.838;10.112;2023-01-26T04:58:50;-1.00;99.90
17762;DHT22;9005;48.838;10.112;2023-01-26T05:01:17;-1.00;99.90
17762;DHT22;9005;48.838;10.112;2023-01-26T05:03:44;-1.00;99.90
17762;DHT22;9005;48.838;10.112;2023-01-26T05:06:11;-1.00;99.90
17762;DHT22;9005;48.838;10.112;2023-01-26T05:08:38;-1.00;99.90
17762;DHT22;9005;48.838;10.112;2023-01-26T05:11:05;-1.00;99.90
17762;DHT22;9005;48.838;10.112;2023-01-26T05:13:33;-1.00;99.90
17762;DHT22;9005;48.838;10.112;2023-01-26T05:16:01;-1.10;99.90
17762;DHT22;9005;48.838;10.112;2023-01-26T05:18:28;-1.10;99.90
17762;DHT22;9005;48.838;10.112;2023-01-26T05:20:55;-1.10;99.90
17762;DHT22;9005;48.838;10.112;2023-01-26T05:23:22;-1.10;99.90
17762;DHT22;9005;48.838;10.112;2023-01-26T05:25:49;-1.10;99.90
17762;DHT22;9005;48.838;10.112;2023-01-26T05:28:16;-1.00;99.90
17762;DHT22;9005;48.838;10.112;2023-01-26T05:30:44;-1.10;99.90
17762;DHT22;9005;48.838;10.112;2023-01-26T05:33:10;-1.10;99.90
17762;DHT22;9005;48.838;10.112;2023-01-26T05:35:37;-1.10;99.90
17762;DHT22;9005;48.838;10.112;2023-01-26T05:38:04;-1.10;99.90
17762;DHT22;9005;48.838;10.112;2023-01-26T05:40:30;-1.10;99.90
17762;DHT22;9005;48.838;10.112;2023-01-26T05:42:57;-1.10;99.90
17762;DHT22;9005;48.838;10.112;2023-01-26T05:45:24;-1.00;99.90
17762;DHT22;9005;48.838;10.112;2023-01-26T05:47:52;-1.00;99.90
17762;DHT22;9005;48.838;10.112;2023-01-26T05:50:19;-0.90;99.90
17762;DHT22;9005;48.838;10.112;2023-01-26T05:52:45;-0.90;99.90
17762;DHT22;9005;48.838;10.112;2023-01-26T05:55:13;-0.90;99.90
17762;DHT22;9005;48.838;10.112;2023-01-26T05:57:39;-0.80;99.90
17762;DHT22;9005;48.838;10.112;2023-01-26T06:00:07;-0.80;99.90
17762;DHT22;9005;48.838;10.112;2023-01-26T06:02:34;-0.80;99.90
17762;DHT22;9005;48.838;10.112;2023-01-26T06:05:03;-0.80;99.90
17762;DHT22;9005;48.838;10.112;2023-01-26T06:07:30;-0.80;99.90
17762;DHT22;9005;48.838;10.112;2023-01-26T06:09:57;-0.80;99.90
17762;DHT22;9005;48.838;10.112;2023-01-26T06:12:23;-0.80;99.90
17762;DHT22;9005;48.838;10.112;2023-01-26T06:14:52;-0.80;99.90
17762;DHT22;9005;48.838;10.112;2023-01-26T06:17:19;-0.70;99.90
17762;DHT22;9005;48.838;10.112;2023-01-26T06:19:46;-0.70;99.90
17762;DHT22;9005;48.838;10.112;2023-01-26T06:22:14;-0.60;99.90
17762;DHT22;9005;48.838;10.112;2023-01-26T06:24:40;-0.60;99.90
17762;DHT22;9005;48.838;10.112;2023-01-26T06:27:11;-0.60;99.90
17762;DHT22;9005;48.838;10.112;2023-01-26T06:29:38;-0.60;99.90
17762;DHT22;9005;48.838;10.112;2023-01-26T06:32:06;-0.60;99.90
17762;DHT22;9005;48.838;10.112;2023-01-26T06:34:32;-0.60;99.90
17762;DHT22;9005;48.838;10.112;2023-01-26T06:36:59;-0.60;99.90
17762;DHT22;9005;48.838;10.112;2023-01-26T06:39:27;-0.70;99.90
17762;DHT22;9005;48.838;10.112;2023-01-26T06:41:54;-0.70;99.90
17762;DHT22;9005;48.838;10.112;2023-01-26T06:44:21;-0.70;99.90
17762;DHT22;9005;48.838;10.112;2023-01-26T06:46:47;-0.70;99.90
17762;DHT22;9005;48.838;10.112;2023-01-26T06:49:14;-0.70;99.90
17762;DHT22;9005;48.838;10.112;2023-01-26T06:51:51;-0.60;99.90
17762;DHT22;9005;48.838;10.112;2023-01-26T06:54:20;-0.60;99.90
17762;DHT22;9005;48.838;10.112;2023-01-26T06:56:48;-0.60;99.90
17762;DHT22;9005;48.838;10.112;2023-01-26T06:59:15;-0.60;99.90
17762;DHT22;9005;48.838;10.112;2023-01-26T07:01:44;-0.60;99.90
17762;DHT22;9005;48.838;10.112;2023-01-26T07:04:11;-0.60;99.90
17762;DHT22;9005;48.838;10.112;2023-01-26T07:06:38;-0.60;99.90
17762;DHT22;9005;48.838;10.112;2023-01-26T07:09:05;-0.50;99.90
17762;DHT22;9005;48.838;10.112;2023-01-26T07:11:32;-0.50;99.90
17762;DHT22;9005;48.838;10.112;2023-01-26T07:14:00;-0.50;99.90
17762;DHT22;9005;48.838;10.112;2023-01-26T07:16:27;-0.50;99.90
17762;DHT22;9005;48.838;10.112;2023-01-26T07:18:54;-0.50;99.90
17762;DHT22;9005;48.838;10.112;2023-01-26T07:21:21;-0.50;99.90
17762;DHT22;9005;48.838;10.112;2023-01-26T07:23:48;-0.50;99.90
17762;DHT22;9005;48.838;10.112;2023-01-26T07:26:16;-0.50;99.90
17762;DHT22;9005;48.838;10.112;2023-01-26T07:28:43;-0.40;99.90
17762;DHT22;9005;48.838;10.112;2023-01-26T07:31:12;-0.40;99.90
17762;DHT22;9005;48.838;10.112;2023-01-26T07:33:38;-0.40;99.90
17762;DHT22;9005;48.838;10.112;2023-01-26T07:36:06;-0.40;99.90
17762;DHT22;9005;48.838;10.112;2023-01-26T07:38:33;-0.40;99.90
17762;DHT22;9005;48.838;10.112;2023-01-26T07:41:04;0.30;99.90
17762;DHT22;9005;48.838;10.112;2023-01-26T08:32:47;-0.10;99.90
17762;DHT22;9005;48.838;10.112;2023-01-26T08:35:14;-0.20;99.90
17762;DHT22;9005;48.838;10.112;2023-01-26T08:37:41;-0.20;99.90
17762;DHT22;9005;48.838;10.112;2023-01-26T08:40:10;-0.20;99.90
17762;DHT22;9005;48.838;10.112;2023-01-26T08:42:37;-0.30;99.90
17762;DHT22;9005;48.838;10.112;2023-01-26T08:45:04;-0.30;99.90
17762;DHT22;9005;48.838;10.112;2023-01-26T08:47:31;-0.20;99.90
17762;DHT22;9005;48.838;10.112;2023-01-26T08:49:58;-0.20;99.90
17762;DHT22;9005;48.838;10.112;2023-01-26T08:52:25;-0.20;99.90
17762;DHT22;9005;48.838;10.112;2023-01-26T08:54:51;-0.10;99.90
17762;DHT22;9005;48.838;10.112;2023-01-26T08:57:20;-0.10;99.90
17762;DHT22;9005;48.838;10.112;2023-01-26T08:59:46;0.00;99.90
17762;DHT22;9005;48.838;10.112;2023-01-26T09:02:13;0.10;99.90
17762;DHT22;9005;48.838;10.112;2023-01-26T09:04:40;0.10;99.90
17762;DHT22;9005;48.838;10.112;2023-01-26T09:07:06;0.10;99.90
17762;DHT22;9005;48.838;10.112;2023-01-26T09:09:34;0.10;99.90
17762;DHT22;9005;48.838;10.112;2023-01-26T09:31:41;0.50;99.90
17762;DHT22;9005;48.838;10.112;2023-01-26T09:34:08;0.50;99.90
17762;DHT22;9005;48.838;10.112;2023-01-26T09:36:35;0.40;99.90
17762;DHT22;9005;48.838;10.112;2023-01-26T09:39:01;0.40;99.90
17762;DHT22;9005;48.838;10.112;2023-01-26T09:41:46;0.40;99.90
17762;DHT22;9005;48.838;10.112;2023-01-26T09:44:18;0.40;99.90
17762;DHT22;9005;48.838;10.112;2023-01-26T09:46:58;0.40;99.90
17762;DHT22;9005;48.838;10.112;2023-01-26T09:49:34;0.40;99.90
17762;DHT22;9005;48.838;10.112;2023-01-26T09:52:05;0.30;99.90
17762;DHT22;9005;48.838;10.112;2023-01-26T09:54:38;0.30;99.90
17762;DHT22;9005;48.838;10.112;2023-01-26T09:57:11;0.30;99.90
17762;DHT22;9005;48.838;10.112;2023-01-26T09:59:42;0.30;99.90
17762;DHT22;9005;48.838;10.112;2023-01-26T10:02:22;0.20;99.90
17762;DHT22;9005;48.838;10.112;2023-01-26T10:04:57;0.20;99.90
17762;DHT22;9005;48.838;10.112;2023-01-26T10:07:26;0.20;99.90
17762;DHT22;9005;48.838;10.112;2023-01-26T10:09:52;0.20;99.90
17762;DHT22;9005;48.838;10.112;2023-01-26T10:12:23;0.20;99.90
17762;DHT22;9005;48.838;10.112;2023-01-26T10:14:52;0.20;99.90
17762;DHT22;9005;48.838;10.112;2023-01-26T10:17:27;0.20;99.90
17762;DHT22;9005;48.838;10.112;2023-01-26T10:20:00;0.20;99.90
17762;DHT22;9005;48.838;10.112;2023-01-26T10:22:34;0.20;99.90
17762;DHT22;9005;48.838;10.112;2023-01-26T10:25:12;0.10;99.90
17762;DHT22;9005;48.838;10.112;2023-01-26T10:27:39;0.10;99.90
17762;DHT22;9005;48.838;10.112;2023-01-26T10:30:12;0.20;99.90
17762;DHT22;9005;48.838;10.112;2023-01-26T10:32:41;0.20;99.90
17762;DHT22;9005;48.838;10.112;2023-01-26T10:35:15;0.30;99.90
17762;DHT22;9005;48.838;10.112;2023-01-26T10:37:42;0.30;99.90
17762;DHT22;9005;48.838;10.112;2023-01-26T10:40:10;0.30;99.90
17762;DHT22;9005;48.838;10.112;2023-01-26T10:42:37;0.40;99.90
17762;DHT22;9005;48.838;10.112;2023-01-26T10:45:09;0.30;99.90
17762;DHT22;9005;48.838;10.112;2023-01-26T10:48:02;0.30;99.90
17762;DHT22;9005;48.838;10.112;2023-01-26T10:50:29;0.30;99.90
17762;DHT22;9005;48.838;10.112;2023-01-26T10:52:58;0.20;99.90
17762;DHT22;9005;48.838;10.112;2023-01-26T10:55:26;0.10;99.90
17762;DHT22;9005;48.838;10.112;2023-01-26T10:57:53;0.10;99.90
17762;DHT22;9005;48.838;10.112;2023-01-26T11:00:23;0.10;99.90
17762;DHT22;9005;48.838;10.112;2023-01-26T11:02:52;0.10;99.90
17762;DHT22;9005;48.838;10.112;2023-01-26T11:05:22;0.00;99.90
17762;DHT22;9005;48.838;10.112;2023-01-26T11:07:51;0.10;99.90
17762;DHT22;9005;48.838;10.112;2023-01-26T11:10:26;0.00;99.90
17762;DHT22;9005;48.838;10.112;2023-01-26T11:13:10;0.10;99.90
17762;DHT22;9005;48.838;10.112;2023-01-26T11:15:39;0.10;99.90
17762;DHT22;9005;48.838;10.112;2023-01-26T11:18:22;0.10;99.90
17762;DHT22;9005;48.838;10.112;2023-01-26T11:20:59;0.10;99.90
17762;DHT22;9005;48.838;10.112;2023-01-26T11:23:49;0.10;99.90
17762;DHT22;9005;48.838;10.112;2023-01-26T11:29:29;0.10;99.90
17762;DHT22;9005;48.838;10.112;2023-01-26T11:32:04;0.10;99.90
17762;DHT22;9005;48.838;10.112;2023-01-26T11:34:39;0.20;99.90
17762;DHT22;9005;48.838;10.112;2023-01-26T11:37:37;0.20;99.90
17762;DHT22;9005;48.838;10.112;2023-01-26T11:40:14;0.20;99.90
17762;DHT22;9005;48.838;10.112;2023-01-26T11:42:50;0.20;99.90
17762;DHT22;9005;48.838;10.112;2023-01-26T11:45:25;0.20;99.90
17762;DHT22;9005;48.838;10.112;2023-01-26T11:48:07;0.20;99.90
17762;DHT22;9005;48.838;10.112;2023-01-26T11:50:40;-0.60;99.90
17762;DHT22;9005;48.838;10.112;2023-01-26T11:53:30;0.20;99.90
17762;DHT22;9005;48.838;10.112;2023-01-26T11:56:09;0.20;99.90
17762;DHT22;9005;48.838;10.112;2023-01-26T11:58:42;0.20;99.90
17762;DHT22;9005;48.838;10.112;2023-01-26T12:01:17;0.10;99.90
17762;DHT22;9005;48.838;10.112;2023-01-26T12:03:47;0.10;99.90
17762;DHT22;9005;48.838;10.112;2023-01-26T12:06:17;0.00;99.90
17762;DHT22;9005;48.838;10.112;2023-01-26T12:08:49;0.00;99.90
17762;DHT22;9005;48.838;10.112;2023-01-26T12:11:21;-0.10;99.90
17762;DHT22;9005;48.838;10.112;2023-01-26T12:14:01;-0.10;99.90
17762;DHT22;9005;48.838;10.112;2023-01-26T12:16:36;0.00;99.90
17762;DHT22;9005;48.838;10.112;2023-01-26T12:19:15;-0.10;99.90
17762;DHT22;9005;48.838;10.112;2023-01-26T12:21:44;0.00;99.90
17762;DHT22;9005;48.838;10.112;2023-01-26T12:24:17;0.00;99.90
17762;DHT22;9005;48.838;10.112;2023-01-26T12:26:48;0.00;99.90
17762;DHT22;9005;48.838;10.112;2023-01-26T12:29:20;0.00;99.90
17762;DHT22;9005;48.838;10.112;2023-01-26T12:31:49;0.00;99.90
17762;DHT22;9005;48.838;10.112;2023-01-26T12:34:21;0.10;99.90
17762;DHT22;9005;48.838;10.112;2023-01-26T12:36:57;0.10;99.90
17762;DHT22;9005;48.838;10.112;2023-01-26T12:39:32;0.10;99.90
17762;DHT22;9005;48.838;10.112;2023-01-26T12:42:18;0.20;99.90
17762;DHT22;9005;48.838;10.112;2023-01-26T12:44:51;0.20;99.90
17762;DHT22;9005;48.838;10.112;2023-01-26T12:47:23;0.20;99.90
17762;DHT22;9005;48.838;10.112;2023-01-26T12:49:57;0.20;99.90
17762;DHT22;9005;48.838;10.112;2023-01-26T12:52:30;0.30;99.90
17762;DHT22;9005;48.838;10.112;2023-01-26T12:55:04;0.20;99.90
17762;DHT22;9005;48.838;10.112;2023-01-26T12:57:41;0.20;99.90
17762;DHT22;9005;48.838;10.112;2023-01-26T13:00:17;0.20;99.90
17762;DHT22;9005;48.838;10.112;2023-01-26T13:02:46;0.20;99.90
17762;DHT22;9005;48.838;10.112;2023-01-26T13:05:25;0.20;99.90
17762;DHT22;9005;48.838;10.112;2023-01-26T13:07:52;0.20;99.90
17762;DHT22;9005;48.838;10.112;2023-01-26T13:10:28;0.10;99.90
17762;DHT22;9005;48.838;10.112;2023-01-26T13:13:27;0.00;99.90
17762;DHT22;9005;48.838;10.112;2023-01-26T13:16:22;0.10;99.90
17762;DHT22;9005;48.838;10.112;2023-01-26T13:18:57;0.10;99.90
17762;DHT22;9005;48.838;10.112;2023-01-26T13:21:27;0.20;99.90
17762;DHT22;9005;48.838;10.112;2023-01-26T13:23:54;0.20;99.90
17762;DHT22;9005;48.838;10.112;2023-01-26T13:26:41;0.10;99.90
17762;DHT22;9005;48.838;10.112;2023-01-26T13:29:26;0.10;99.90
17762;DHT22;9005;48.838;10.112;2023-01-26T13:31:57;0.10;99.90
17762;DHT22;9005;48.838;10.112;2023-01-26T13:34:27;0.10;99.90
17762;DHT22;9005;48.838;10.112;2023-01-26T13:36:58;0.10;99.90
17762;DHT22;9005;48.838;10.112;2023-01-26T13:39:31;0.10;99.90
17762;DHT22;9005;48.838;10.112;2023-01-26T13:42:01;0.00;99.90
17762;DHT22;9005;48.838;10.112;2023-01-26T13:44:33;0.00;99.90
17762;DHT22;9005;48.838;10.112;2023-01-26T13:47:07;-0.10;99.90
17762;DHT22;9005;48.838;10.112;2023-01-26T13:49:38;-0.20;99.90
17762;DHT22;9005;48.838;10.112;2023-01-26T13:52:15;-0.20;99.90
17762;DHT22;9005;48.838;10.112;2023-01-26T13:54:42;-0.30;99.90
17762;DHT22;9005;48.838;10.112;2023-01-26T13:57:11;-0.30;99.90
17762;DHT22;9005;48.838;10.112;2023-01-26T13:59:49;-0.30;99.90
17762;DHT22;9005;48.838;10.112;2023-01-26T14:02:24;-0.40;99.90
17762;DHT22;9005;48.838;10.112;2023-01-26T14:04:52;-0.40;99.90
17762;DHT22;9005;48.838;10.112;2023-01-26T14:07:23;-0.40;99.90
17762;DHT22;9005;48.838;10.112;2023-01-26T14:09:52;-0.40;99.90
17762;DHT22;9005;48.838;10.112;2023-01-26T14:12:22;-0.40;99.90
17762;DHT22;9005;48.838;10.112;2023-01-26T14:14:52;-0.40;99.90
17762;DHT22;9005;48.838;10.112;2023-01-26T14:17:26;-0.50;99.90
17762;DHT22;9005;48.838;10.112;2023-01-26T14:19:53;-0.40;99.90
17762;DHT22;9005;48.838;10.112;2023-01-26T14:22:20;-0.40;99.90
17762;DHT22;9005;48.838;10.112;2023-01-26T14:24:48;-0.40;99.90
17762;DHT22;9005;48.838;10.112;2023-01-26T14:27:29;-0.50;99.90
17762;DHT22;9005;48.838;10.112;2023-01-26T14:29:56;-0.50;99.90
17762;DHT22;9005;48.838;10.112;2023-01-26T14:32:23;-0.40;99.90
17762;DHT22;9005;48.838;10.112;2023-01-26T14:34:55;-0.50;99.90
17762;DHT22;9005;48.838;10.112;2023-01-26T14:37:22;-0.50;99.90
17762;DHT22;9005;48.838;10.112;2023-01-26T14:40:08;-0.50;99.90
17762;DHT22;9005;48.838;10.112;2023-01-26T14:42:37;-0.50;99.90
17762;DHT22;9005;48.838;10.112;2023-01-26T14:45:10;-0.50;99.90
17762;DHT22;9005;48.838;10.112;2023-01-26T14:47:37;-0.50;99.90
17762;DHT22;9005;48.838;10.112;2023-01-26T14:50:10;-0.50;99.90
17762;DHT22;9005;48.838;10.112;2023-01-26T14:52:43;-0.60;99.90
17762;DHT22;9005;48.838;10.112;2023-01-26T14:55:22;-0.60;99.90
17762;DHT22;9005;48.838;10.112;2023-01-26T14:57:51;-0.50;99.90
17762;DHT22;9005;48.838;10.112;2023-01-26T15:00:22;-0.50;99.90
17762;DHT22;9005;48.838;10.112;2023-01-26T15:02:52;-0.50;99.90
17762;DHT22;9005;48.838;10.112;2023-01-26T15:05:21;-0.50;99.90
17762;DHT22;9005;48.838;10.112;2023-01-26T15:07:54;-0.50;99.90
17762;DHT22;9005;48.838;10.112;2023-01-26T15:10:29;-0.50;99.90
17762;DHT22;9005;48.838;10.112;2023-01-26T15:13:00;-0.50;99.90
17762;DHT22;9005;48.838;10.112;2023-01-26T15:15:29;-0.50;99.90
17762;DHT22;9005;48.838;10.112;2023-01-26T15:18:04;-0.60;99.90
17762;DHT22;9005;48.838;10.112;2023-01-26T15:20:39;-0.60;99.90
17762;DHT22;9005;48.838;10.112;2023-01-26T15:23:22;-0.70;99.90
17762;DHT22;9005;48.838;10.112;2023-01-26T15:25:51;-0.70;99.90
17762;DHT22;9005;48.838;10.112;2023-01-26T15:28:22;-0.80;99.90
17762;DHT22;9005;48.838;10.112;2023-01-26T15:30:51;-0.80;99.90
17762;DHT22;9005;48.838;10.112;2023-01-26T15:33:37;-0.90;99.90
17762;DHT22;9005;48.838;10.112;2023-01-26T15:36:04;-0.90;99.90
17762;DHT22;9005;48.838;10.112;2023-01-26T15:38:31;-0.90;99.90
17762;DHT22;9005;48.838;10.112;2023-01-26T15:40:58;-0.90;99.90
17762;DHT22;9005;48.838;10.112;2023-01-26T15:43:27;-0.90;99.90
17762;DHT22;9005;48.838;10.112;2023-01-26T15:45:56;-0.90;99.90
17762;DHT22;9005;48.838;10.112;2023-01-26T15:48:24;-0.90;99.90
17762;DHT22;9005;48.838;10.112;2023-01-26T15:50:51;-0.80;99.90
17762;DHT22;9005;48.838;10.112;2023-01-26T15:53:20;-0.90;99.90
17762;DHT22;9005;48.838;10.112;2023-01-26T15:55:48;-0.90;99.90
17762;DHT22;9005;48.838;10.112;2023-01-26T15:58:17;-0.80;99.90
17762;DHT22;9005;48.838;10.112;2023-01-26T16:00:46;-0.80;99.90
17762;DHT22;9005;48.838;10.112;2023-01-26T16:03:14;-0.80;99.90
17762;DHT22;9005;48.838;10.112;2023-01-26T16:05:42;-0.90;99.90
17762;DHT22;9005;48.838;10.112;2023-01-26T16:08:12;-0.90;99.90
17762;DHT22;9005;48.838;10.112;2023-01-26T16:10:38;-1.00;99.90
17762;DHT22;9005;48.838;10.112;2023-01-26T16:13:08;-1.00;99.90
17762;DHT22;9005;48.838;10.112;2023-01-26T16:15:38;-1.00;99.90
17762;DHT22;9005;48.838;10.112;2023-01-26T16:18:08;-1.00;99.90
17762;DHT22;9005;48.838;10.112;2023-01-26T16:20:36;-1.00;99.90
17762;DHT22;9005;48.838;10.112;2023-01-26T16:23:07;-1.00;99.90
17762;DHT22;9005;48.838;10.112;2023-01-26T16:25:36;-1.00;99.90
17762;DHT22;9005;48.838;10.112;2023-01-26T16:28:04;-1.00;99.90
17762;DHT22;9005;48.838;10.112;2023-01-26T16:30:31;-1.10;99.90
17762;DHT22;9005;48.838;10.112;2023-01-26T16:32:58;-1.10;99.90
17762;DHT22;9005;48.838;10.112;2023-01-26T16:35:26;-1.10;99.90
17762;DHT22;9005;48.838;10.112;2023-01-26T16:37:53;-1.10;99.90
17762;DHT22;9005;48.838;10.112;2023-01-26T16:40:20;-1.10;99.90
17762;DHT22;9005;48.838;10.112;2023-01-26T16:42:49;-1.10;99.90
17762;DHT22;9005;48.838;10.112;2023-01-26T16:45:18;-1.10;99.90
17762;DHT22;9005;48.838;10.112;2023-01-26T16:47:48;-1.10;99.90
17762;DHT22;9005;48.838;10.112;2023-01-26T16:50:15;-1.10;99.90
17762;DHT22;9005;48.838;10.112;2023-01-26T16:52:43;-1.10;99.90
17762;DHT22;9005;48.838;10.112;2023-01-26T16:55:11;-1.00;99.90
17762;DHT22;9005;48.838;10.112;2023-01-26T16:57:41;-1.00;99.90
17762;DHT22;9005;48.838;10.112;2023-01-26T17:00:12;-1.00;99.90
17762;DHT22;9005;48.838;10.112;2023-01-26T17:02:41;-1.00;99.90
17762;DHT22;9005;48.838;10.112;2023-01-26T17:05:14;-1.00;99.90
17762;DHT22;9005;48.838;10.112;2023-01-26T17:07:41;-1.00;99.90
17762;DHT22;9005;48.838;10.112;2023-01-26T17:10:11;-1.00;99.90